Time;durP1;ratioP1;P1;durP2;ratioP2;P2;SDS_P1;SDS_P2;PMS_P1;PMS_P2;Temp;Humidity;BMP_temperature;BMP_pressure;BME280_temperature;BME280_humidity;BME280_pressure;Samples;Min_cycle;Max_cycle;Signal;HPM_P1;HPM_P2
2022/11/21 00:00:22;;;;;;;19.08;8.30;;;;;;;;;;6137607;23;20029;-69
2022/11/21 00:02:49;;;;;;;17.23;7.40;;;;;;;;;;6138513;23;20029;-64
2022/11/21 00:05:15;;;;;;;16.70;6.93;;;;;;;;;;6137407;23;20045;-65
2022/11/21 00:07:44;;;;;;;19.80;7.20;;;;;;;;;;6142945;23;20117;-64
2022/11/21 00:10:11;;;;;;;19.60;7.45;;;;;;;;;;6138124;23;20117;-66
2022/11/21 00:12:37;;;;;;;18.63;8.15;;;;;;;;;;6143340;23;20033;-64
2022/11/21 00:15:05;;;;;;;17.25;7.38;;;;;;;;;;6136770;23;20049;-65
2022/11/21 00:17:31;;;;;;;18.15;7.32;;;;;;;;;;6136603;23;20056;-67
2022/11/21 00:19:58;;;;;;;16.30;7.25;;;;;;;;;;6129626;23;20029;-65
2022/11/21 00:22:24;;;;;;;18.42;7.50;;;;;;;;;;6119360;23;20258;-65
2022/11/21 00:24:52;;;;;;;19.45;7.72;;;;;;;;;;6129376;23;20030;-63
2022/11/21 00:27:19;;;;;;;22.00;7.07;;;;;;;;;;6137412;23;20041;-67
2022/11/21 00:29:45;;;;;;;16.17;6.72;;;;;;;;;;6135769;23;20017;-66
2022/11/21 00:32:12;;;;;;;17.08;7.53;;;;;;;;;;6129208;23;20040;-64
2022/11/21 00:34:38;;;;;;;16.98;7.75;;;;;;;;;;6137384;23;20029;-67
2022/11/21 00:37:05;;;;;;;16.00;6.93;;;;;;;;;;6135735;23;20029;-65
2022/11/21 00:39:31;;;;;;;17.35;7.32;;;;;;;;;;6143594;23;20029;-64
2022/11/21 00:41:59;;;;;;;16.20;6.82;;;;;;;;;;6127529;23;20022;-65
2022/11/21 00:44:26;;;;;;;22.15;7.32;;;;;;;;;;6138940;23;20084;-67
2022/11/21 00:46:52;;;;;;;16.63;6.80;;;;;;;;;;6138136;23;20029;-66
2022/11/21 00:49:19;;;;;;;18.13;7.30;;;;;;;;;;6138096;23;20102;-63
2022/11/21 00:51:45;;;;;;;15.05;6.75;;;;;;;;;;6132373;23;20203;-65
2022/11/21 00:54:12;;;;;;;18.63;7.63;;;;;;;;;;6132281;23;20053;-66
2022/11/21 00:56:38;;;;;;;18.00;7.53;;;;;;;;;;6136544;23;20025;-63
2022/11/21 00:59:06;;;;;;;16.70;6.95;;;;;;;;;;6139387;23;20033;-62
2022/11/21 01:01:32;;;;;;;17.90;7.63;;;;;;;;;;6135212;23;20036;-63
2022/11/21 01:03:59;;;;;;;17.83;7.38;;;;;;;;;;6129627;23;20029;-65
2022/11/21 01:06:25;;;;;;;14.35;6.10;;;;;;;;;;6135734;23;20029;-65
2022/11/21 01:08:52;;;;;;;16.45;6.78;;;;;;;;;;6139022;23;20025;-62
2022/11/21 01:11:19;;;;;;;18.20;6.68;;;;;;;;;;6138711;23;20026;-66
2022/11/21 01:13:46;;;;;;;17.20;6.78;;;;;;;;;;6134269;23;20108;-63
2022/11/21 01:16:15;;;;;;;19.63;7.18;;;;;;;;;;6115288;23;20056;-63
2022/11/21 01:18:42;;;;;;;17.30;6.95;;;;;;;;;;6135779;23;20089;-62
2022/11/21 01:21:12;;;;;;;16.80;6.88;;;;;;;;;;6108896;23;20108;-67
2022/11/21 01:23:39;;;;;;;14.93;6.40;;;;;;;;;;6135959;23;20060;-65
2022/11/21 01:26:06;;;;;;;16.40;6.82;;;;;;;;;;6128071;23;20482;-63
2022/11/21 01:28:33;;;;;;;16.50;7.00;;;;;;;;;;6137125;23;20108;-66
2022/11/21 01:31:05;;;;;;;18.88;7.30;;;;;;;;;;6114636;23;20096;-64
2022/11/21 01:33:33;;;;;;;14.40;6.35;;;;;;;;;;6136544;23;20025;-62
2022/11/21 01:36:05;;;;;;;15.45;6.57;;;;;;;;;;6128481;23;20029;-61
2022/11/21 01:38:32;;;;;;;14.30;6.25;;;;;;;;;;6136717;23;20077;-63
2022/11/21 01:40:59;;;;;;;15.80;6.60;;;;;;;;;;6138538;23;20085;-62
2022/11/21 01:43:25;;;;;;;17.83;6.75;;;;;;;;;;6135118;23;20026;-65
2022/11/21 01:45:54;;;;;;;17.75;7.38;;;;;;;;;;6136228;23;20032;-64
2022/11/21 01:48:22;;;;;;;15.80;6.85;;;;;;;;;;6129338;23;20037;-64
2022/11/21 01:50:50;;;;;;;17.80;7.40;;;;;;;;;;6138155;23;20025;-65
2022/11/21 01:53:17;;;;;;;17.42;7.25;;;;;;;;;;6137107;23;20029;-62
2022/11/21 01:55:43;;;;;;;13.75;6.07;;;;;;;;;;6136415;23;20076;-66
2022/11/21 01:58:11;;;;;;;18.63;7.28;;;;;;;;;;6130559;23;20057;-64
2022/11/21 02:00:38;;;;;;;15.68;6.47;;;;;;;;;;6137044;23;20052;-65
2022/11/21 02:03:07;;;;;;;16.23;6.93;;;;;;;;;;6137960;23;20045;-62
2022/11/21 02:05:35;;;;;;;18.30;6.60;;;;;;;;;;6135712;23;20049;-66
2022/11/21 02:08:04;;;;;;;14.73;6.07;;;;;;;;;;6128237;23;20029;-64
2022/11/21 02:10:31;;;;;;;16.92;6.47;;;;;;;;;;6137121;23;20034;-64
2022/11/21 02:12:58;;;;;;;16.52;7.10;;;;;;;;;;6137459;23;20028;-66
2022/11/21 02:15:25;;;;;;;14.35;6.13;;;;;;;;;;6134941;23;20029;-66
2022/11/21 02:17:52;;;;;;;15.43;6.65;;;;;;;;;;6129727;23;20025;-66
2022/11/21 02:20:19;;;;;;;16.10;6.88;;;;;;;;;;6134475;23;20111;-66
2022/11/21 02:22:50;;;;;;;23.42;7.40;;;;;;;;;;6140112;23;20080;-62
2022/11/21 02:25:19;;;;;;;16.38;6.60;;;;;;;;;;6137931;23;20125;-61
2022/11/21 02:27:46;;;;;;;17.20;6.75;;;;;;;;;;6142956;23;20125;-63
2022/11/21 02:30:13;;;;;;;17.83;6.95;;;;;;;;;;6133011;23;20180;-65
2022/11/21 02:32:40;;;;;;;17.00;6.68;;;;;;;;;;6140298;23;20088;-62
2022/11/21 02:35:07;;;;;;;17.42;7.47;;;;;;;;;;6138529;23;20033;-65
2022/11/21 02:37:35;;;;;;;16.83;6.65;;;;;;;;;;6141249;23;20113;-63
2022/11/21 02:40:03;;;;;;;16.13;6.25;;;;;;;;;;6130804;23;20041;-65
2022/11/21 02:42:33;;;;;;;16.27;6.87;;;;;;;;;;6140053;23;20029;-63
2022/11/21 02:45:03;;;;;;;16.23;6.40;;;;;;;;;;6139396;23;20129;-66
2022/11/21 02:47:30;;;;;;;20.02;7.43;;;;;;;;;;6138828;23;20033;-65
2022/11/21 02:50:00;;;;;;;15.88;7.20;;;;;;;;;;6131669;23;20180;-66
2022/11/21 02:52:26;;;;;;;16.90;6.18;;;;;;;;;;6137820;23;20073;-67
2022/11/21 02:54:52;;;;;;;17.35;7.13;;;;;;;;;;6139536;23;20026;-64
2022/11/21 02:57:19;;;;;;;14.77;6.75;;;;;;;;;;6137718;23;20068;-64
2022/11/21 02:59:47;;;;;;;16.92;6.60;;;;;;;;;;6137139;23;20105;-65
2022/11/21 03:02:13;;;;;;;14.35;6.00;;;;;;;;;;6113479;23;20036;-64
2022/11/21 03:04:40;;;;;;;16.42;7.05;;;;;;;;;;6141028;23;20085;-66
2022/11/21 03:07:06;;;;;;;16.77;6.15;;;;;;;;;;6136647;23;20248;-64
2022/11/21 03:09:33;;;;;;;17.10;6.97;;;;;;;;;;6130379;23;20063;-64
2022/11/21 03:11:59;;;;;;;13.85;5.70;;;;;;;;;;6143704;23;20193;-64
2022/11/21 03:14:26;;;;;;;16.60;7.40;;;;;;;;;;6140305;23;20033;-62
2022/11/21 03:16:54;;;;;;;15.57;6.00;;;;;;;;;;6139512;23;20049;-65
2022/11/21 03:19:20;;;;;;;18.33;7.47;;;;;;;;;;6138099;23;20021;-65
2022/11/21 03:21:47;;;;;;;15.10;6.45;;;;;;;;;;6137314;23;20541;-63
2022/11/21 03:24:13;;;;;;;16.80;6.65;;;;;;;;;;6139451;23;20055;-66
2022/11/21 03:26:40;;;;;;;18.00;6.47;;;;;;;;;;6141394;23;20084;-67
2022/11/21 03:29:06;;;;;;;18.25;7.15;;;;;;;;;;6137494;23;20050;-65
2022/11/21 03:31:33;;;;;;;18.08;6.18;;;;;;;;;;6129251;23;20052;-65
2022/11/21 03:34:00;;;;;;;14.07;5.88;;;;;;;;;;6143110;23;20108;-65
2022/11/21 03:36:27;;;;;;;18.38;6.70;;;;;;;;;;6138845;23;20030;-61
2022/11/21 03:38:54;;;;;;;15.27;6.05;;;;;;;;;;6138152;23;20073;-63
2022/11/21 03:41:30;;;;;;;19.77;6.90;;;;;;;;;;6137271;23;20028;-65
2022/11/21 03:43:57;;;;;;;16.55;6.25;;;;;;;;;;6107940;23;20034;-64
2022/11/21 03:46:23;;;;;;;17.95;6.82;;;;;;;;;;6140473;23;20049;-62
2022/11/21 03:48:50;;;;;;;16.38;6.53;;;;;;;;;;6135735;23;20109;-65
2022/11/21 03:51:19;;;;;;;16.27;6.25;;;;;;;;;;6138625;23;20032;-61
2022/11/21 03:53:45;;;;;;;19.40;7.50;;;;;;;;;;6128496;23;20029;-63
2022/11/21 03:56:12;;;;;;;13.70;6.00;;;;;;;;;;6139650;23;20052;-63
2022/11/21 03:58:39;;;;;;;18.60;6.88;;;;;;;;;;6140022;23;20081;-65
2022/11/21 04:01:05;;;;;;;16.50;6.80;;;;;;;;;;6137652;23;20027;-64
2022/11/21 04:03:32;;;;;;;17.73;6.55;;;;;;;;;;6130099;23;20048;-63
2022/11/21 04:05:58;;;;;;;19.17;6.93;;;;;;;;;;6138875;23;20036;-63
2022/11/21 04:08:26;;;;;;;16.25;6.85;;;;;;;;;;6139614;23;20160;-64
2022/11/21 04:10:53;;;;;;;16.40;6.67;;;;;;;;;;6139645;23;20105;-64
2022/11/21 04:13:19;;;;;;;19.42;7.07;;;;;;;;;;6136962;23;20030;-64
2022/11/21 04:15:46;;;;;;;17.48;6.50;;;;;;;;;;6131387;23;20800;-62
2022/11/21 04:18:13;;;;;;;16.75;6.70;;;;;;;;;;6137999;23;20067;-61
2022/11/21 04:20:39;;;;;;;16.23;6.22;;;;;;;;;;6136317;23;20090;-65
2022/11/21 04:23:06;;;;;;;17.17;6.70;;;;;;;;;;6139526;23;20029;-66
2022/11/21 04:25:34;;;;;;;16.83;7.18;;;;;;;;;;6127899;23;20083;-65
2022/11/21 04:28:01;;;;;;;16.13;6.70;;;;;;;;;;6144272;23;20025;-63
2022/11/21 04:30:28;;;;;;;14.63;5.75;;;;;;;;;;6137190;23;20029;-64
2022/11/21 04:32:55;;;;;;;18.38;6.55;;;;;;;;;;6138915;23;20026;-62
2022/11/21 04:35:22;;;;;;;15.65;6.53;;;;;;;;;;6133730;23;20022;-64
2022/11/21 04:37:48;;;;;;;16.58;6.32;;;;;;;;;;6132575;23;20029;-65
2022/11/21 04:40:16;;;;;;;17.13;6.20;;;;;;;;;;6137889;23;20079;-66
2022/11/21 04:42:44;;;;;;;17.42;6.50;;;;;;;;;;6138302;23;20029;-66
2022/11/21 04:45:11;;;;;;;15.35;5.78;;;;;;;;;;6136834;23;20036;-64
2022/11/21 04:47:37;;;;;;;16.65;6.35;;;;;;;;;;6130128;23;20026;-65
2022/11/21 04:50:04;;;;;;;16.77;6.93;;;;;;;;;;6136995;23;20037;-64
2022/11/21 04:52:31;;;;;;;20.77;6.43;;;;;;;;;;6139875;23;20097;-63
2022/11/21 04:54:57;;;;;;;16.40;6.88;;;;;;;;;;6138467;23;20021;-64
2022/11/21 04:57:24;;;;;;;16.70;6.30;;;;;;;;;;6131860;23;20113;-64
2022/11/21 04:59:52;;;;;;;15.88;5.97;;;;;;;;;;6142140;23;20025;-66
2022/11/21 05:02:18;;;;;;;18.70;6.63;;;;;;;;;;6137417;23;20047;-63
2022/11/21 05:04:45;;;;;;;16.33;6.57;;;;;;;;;;6138770;23;20336;-64
2022/11/21 05:07:11;;;;;;;17.23;6.78;;;;;;;;;;6138054;23;20052;-66
2022/11/21 05:09:38;;;;;;;18.27;7.10;;;;;;;;;;6128981;23;20117;-63
2022/11/21 05:14:48;;;;;;;18.90;7.05;;;;;;;;;;6144205;23;20036;-62
2022/11/21 05:17:17;;;;;;;15.95;6.57;;;;;;;;;;6137675;23;20037;-64
2022/11/21 05:19:43;;;;;;;16.00;6.57;;;;;;;;;;6132064;23;20025;-64
2022/11/21 05:22:09;;;;;;;14.95;6.18;;;;;;;;;;6137217;23;20079;-64
2022/11/21 05:24:36;;;;;;;16.55;6.50;;;;;;;;;;6140351;23;20102;-65
2022/11/21 05:27:02;;;;;;;21.15;6.47;;;;;;;;;;6133978;23;20036;-65
2022/11/21 05:29:29;;;;;;;17.77;7.25;;;;;;;;;;6132083;23;20079;-63
2022/11/21 05:31:56;;;;;;;16.40;6.55;;;;;;;;;;6135714;23;20029;-62
2022/11/21 05:34:24;;;;;;;19.92;6.97;;;;;;;;;;6138278;23;20064;-66
2022/11/21 05:36:55;;;;;;;17.90;6.95;;;;;;;;;;6137931;23;20453;-65
2022/11/21 05:39:22;;;;;;;15.38;6.28;;;;;;;;;;6133916;23;20109;-62
2022/11/21 05:41:49;;;;;;;16.17;6.53;;;;;;;;;;6121984;23;20025;-63
2022/11/21 05:44:14;;;;;;;17.02;5.90;;;;;;;;;;6139499;23;20049;-64
2022/11/21 05:46:41;;;;;;;15.88;6.40;;;;;;;;;;6119968;23;20026;-62
2022/11/21 05:49:08;;;;;;;20.10;7.00;;;;;;;;;;6133078;23;20049;-63
2022/11/21 05:51:35;;;;;;;18.38;6.53;;;;;;;;;;6129400;23;20345;-67
2022/11/21 05:54:02;;;;;;;17.50;6.43;;;;;;;;;;6131648;23;20089;-62
2022/11/21 05:56:29;;;;;;;21.95;6.43;;;;;;;;;;6108021;23;20022;-67
2022/11/21 05:58:56;;;;;;;21.88;7.18;;;;;;;;;;6108012;23;20053;-65
2022/11/21 06:04:03;;;;;;;20.10;6.68;;;;;;;;;;6102384;23;20029;-62
2022/11/21 06:06:29;;;;;;;17.27;6.15;;;;;;;;;;6108788;23;20034;-63
2022/11/21 06:08:57;;;;;;;18.58;6.78;;;;;;;;;;6104631;23;20104;-62
2022/11/21 06:11:24;;;;;;;21.20;7.27;;;;;;;;;;6107009;23;20040;-65
2022/11/21 06:13:50;;;;;;;21.30;7.10;;;;;;;;;;6100456;23;20022;-65
2022/11/21 06:16:18;;;;;;;22.42;7.55;;;;;;;;;;6110024;23;20105;-65
2022/11/21 06:18:45;;;;;;;19.23;7.38;;;;;;;;;;6106820;23;20494;-64
2022/11/21 06:21:13;;;;;;;23.50;7.18;;;;;;;;;;6107076;23;20049;-64
2022/11/21 06:23:40;;;;;;;23.33;7.50;;;;;;;;;;6096440;23;20033;-66
2022/11/21 06:26:09;;;;;;;18.70;6.95;;;;;;;;;;6113264;23;20776;-64
2022/11/21 06:28:38;;;;;;;21.45;7.13;;;;;;;;;;6107915;23;20049;-63
2022/11/21 06:31:04;;;;;;;21.73;6.55;;;;;;;;;;6105691;23;20025;-66
2022/11/21 06:33:31;;;;;;;18.63;7.50;;;;;;;;;;6106437;23;20108;-67
2022/11/21 06:35:57;;;;;;;20.58;7.75;;;;;;;;;;6104099;23;20038;-65
2022/11/21 06:38:24;;;;;;;20.25;7.22;;;;;;;;;;6105509;23;20030;-63
2022/11/21 06:40:50;;;;;;;20.50;7.22;;;;;;;;;;6104481;23;20104;-65
2022/11/21 06:43:18;;;;;;;21.42;7.88;;;;;;;;;;6105833;23;20030;-64
2022/11/21 06:45:46;;;;;;;20.30;7.97;;;;;;;;;;6087517;23;20030;-65
2022/11/21 06:48:12;;;;;;;25.00;7.80;;;;;;;;;;6105373;23;20037;-63
2022/11/21 06:50:39;;;;;;;19.08;7.60;;;;;;;;;;6103846;23;20084;-61
2022/11/21 06:53:05;;;;;;;18.58;6.68;;;;;;;;;;6120744;23;20033;-64
2022/11/21 06:55:32;;;;;;;18.95;6.72;;;;;;;;;;6121609;23;20040;-65
2022/11/21 06:57:59;;;;;;;23.17;7.72;;;;;;;;;;6132549;23;20104;-64
2022/11/21 07:00:27;;;;;;;17.35;6.82;;;;;;;;;;6121479;23;20096;-62
2022/11/21 07:02:55;;;;;;;20.38;7.60;;;;;;;;;;6122157;23;20029;-63
2022/11/21 07:05:24;;;;;;;20.48;7.80;;;;;;;;;;6117698;23;20081;-65
2022/11/21 07:07:51;;;;;;;22.70;8.02;;;;;;;;;;6102271;23;20030;-62
2022/11/21 07:10:17;;;;;;;21.77;7.55;;;;;;;;;;6108087;23;20030;-63
2022/11/21 07:15:29;;;;;;;22.70;7.40;;;;;;;;;;6095182;23;20022;-66
2022/11/21 07:18:01;;;;;;;19.20;7.03;;;;;;;;;;6112424;23;20030;-66
2022/11/21 07:20:27;;;;;;;21.90;8.32;;;;;;;;;;6120581;23;20025;-64
2022/11/21 07:22:54;;;;;;;20.02;7.30;;;;;;;;;;6096245;23;20025;-66
2022/11/21 07:25:24;;;;;;;20.15;8.13;;;;;;;;;;6106699;23;20061;-66
2022/11/21 07:27:53;;;;;;;23.38;7.65;;;;;;;;;;6107127;23;20021;-63
2022/11/21 07:30:19;;;;;;;17.38;7.35;;;;;;;;;;6135023;23;20060;-66
2022/11/21 07:32:47;;;;;;;19.17;7.97;;;;;;;;;;6096885;23;20302;-61
2022/11/21 07:35:14;;;;;;;19.00;7.28;;;;;;;;;;6125042;23;20029;-66
2022/11/21 07:37:40;;;;;;;20.83;7.53;;;;;;;;;;6111667;23;20029;-62
2022/11/21 07:40:07;;;;;;;24.75;7.35;;;;;;;;;;6087198;23;20033;-63
2022/11/21 07:42:34;;;;;;;19.80;7.68;;;;;;;;;;6096945;23;20056;-66
2022/11/21 07:45:09;;;;;;;21.83;8.13;;;;;;;;;;6113192;23;20033;-63
2022/11/21 07:47:36;;;;;;;19.40;7.55;;;;;;;;;;6106456;23;20026;-67
2022/11/21 07:50:07;;;;;;;20.60;7.25;;;;;;;;;;6107850;23;20140;-65
2022/11/21 07:52:33;;;;;;;18.35;7.85;;;;;;;;;;6122517;23;20045;-65
2022/11/21 07:55:01;;;;;;;18.95;7.35;;;;;;;;;;6110873;23;20142;-64
2022/11/21 07:57:27;;;;;;;18.42;6.13;;;;;;;;;;5927517;23;3077011;-64
2022/11/21 07:59:54;;;;;;;23.42;7.95;;;;;;;;;;6133554;23;20029;-65
2022/11/21 08:02:21;;;;;;;21.55;7.70;;;;;;;;;;6099049;23;20148;-63
2022/11/21 08:04:48;;;;;;;18.85;6.95;;;;;;;;;;6102887;23;20096;-63
2022/11/21 08:07:17;;;;;;;20.33;7.60;;;;;;;;;;6116054;23;20113;-65
2022/11/21 08:09:43;;;;;;;21.40;7.47;;;;;;;;;;6070060;23;20030;-65
2022/11/21 08:12:12;;;;;;;21.63;7.45;;;;;;;;;;6091996;23;20105;-66
2022/11/21 08:14:39;;;;;;;21.35;7.75;;;;;;;;;;6104727;23;20099;-67
2022/11/21 08:17:06;;;;;;;23.77;8.27;;;;;;;;;;6108773;23;20041;-66
2022/11/21 08:19:33;;;;;;;20.30;7.82;;;;;;;;;;6074398;23;20062;-65
2022/11/21 08:22:00;;;;;;;25.70;9.55;;;;;;;;;;6112314;23;20040;-62
2022/11/21 08:24:28;;;;;;;23.92;8.95;;;;;;;;;;6083398;23;20036;-63
2022/11/21 08:27:00;;;;;;;23.10;8.02;;;;;;;;;;6105386;23;20183;-63
2022/11/21 08:29:27;;;;;;;22.05;8.38;;;;;;;;;;6094598;23;20030;-65
2022/11/21 08:31:53;;;;;;;20.40;8.15;;;;;;;;;;6126557;23;20033;-65
2022/11/21 08:34:20;;;;;;;23.55;9.13;;;;;;;;;;6128395;23;20107;-64
2022/11/21 08:36:47;;;;;;;21.88;7.70;;;;;;;;;;6117591;23;20033;-63
2022/11/21 08:39:13;;;;;;;18.23;7.78;;;;;;;;;;6130330;23;20063;-65
2022/11/21 08:44:28;;;;;;;21.60;7.97;;;;;;;;;;6073014;23;20027;-65
2022/11/21 08:46:57;;;;;;;24.08;8.15;;;;;;;;;;6121354;23;20025;-65
2022/11/21 08:49:23;;;;;;;;;;;;;;;;;;6124885;23;20033;-66
2022/11/21 08:51:50;;;;;;;14.57;6.13;;;;;;;;;;6121990;23;20082;-64
2022/11/21 08:54:17;;;;;;;19.38;7.55;;;;;;;;;;6121883;23;20022;-63
2022/11/21 08:56:45;;;;;;;20.17;8.10;;;;;;;;;;6086591;23;20034;-66
2022/11/21 08:59:11;;;;;;;18.13;7.38;;;;;;;;;;6102856;23;20122;-67
2022/11/21 09:01:38;;;;;;;18.45;7.20;;;;;;;;;;6119021;23;20067;-63
2022/11/21 09:04:04;;;;;;;24.05;8.15;;;;;;;;;;6118207;23;20022;-66
2022/11/21 09:06:31;;;;;;;19.02;6.85;;;;;;;;;;6126280;23;20028;-64
2022/11/21 09:09:00;;;;;;;19.67;7.70;;;;;;;;;;6105336;23;20292;-65
2022/11/21 09:11:27;;;;;;;23.45;8.15;;;;;;;;;;6118228;23;20029;-65
2022/11/21 09:19:33;;;;;;;20.65;6.70;;;;;;;;;;6159147;23;20020;-69
2022/11/21 09:22:00;;;;;;;18.55;7.30;;;;;;;;;;6045455;23;21429;-66
2022/11/21 09:24:26;;;;;;;19.02;6.90;;;;;;;;;;6082997;23;20022;-69
2022/11/21 09:26:53;;;;;;;18.80;6.63;;;;;;;;;;6095449;23;20077;-68
2022/11/21 09:29:21;;;;;;;20.95;7.38;;;;;;;;;;6133874;23;20052;-66
2022/11/21 09:31:55;;;;;;;17.17;6.88;;;;;;;;;;6112987;23;20118;-66
2022/11/21 09:34:21;;;;;;;17.33;6.32;;;;;;;;;;6067984;23;20115;-65
2022/11/21 09:36:48;;;;;;;16.60;6.78;;;;;;;;;;6111863;23;20064;-67
2022/11/21 09:39:16;;;;;;;18.92;6.28;;;;;;;;;;6107144;23;20041;-64
2022/11/21 09:41:53;;;;;;;18.08;6.13;;;;;;;;;;6153735;23;20148;-66
2022/11/21 09:44:35;;;;;;;19.15;6.97;;;;;;;;;;6069485;23;20125;-67
2022/11/21 09:47:04;;;;;;;19.20;7.88;;;;;;;;;;6082016;23;20096;-63
2022/11/21 09:49:36;;;;;;;20.23;7.13;;;;;;;;;;6121508;23;20033;-65
2022/11/21 09:52:02;;;;;;;19.08;7.10;;;;;;;;;;6128621;22;20123;-66
2022/11/21 09:54:32;;;;;;;17.25;6.80;;;;;;;;;;6099218;23;20028;-67
2022/11/21 09:56:59;;;;;;;19.20;7.05;;;;;;;;;;6109191;23;20087;-67
2022/11/21 09:59:30;;;;;;;16.60;6.95;;;;;;;;;;6112581;23;20098;-66
2022/11/21 10:01:59;;;;;;;20.30;7.53;;;;;;;;;;6114565;23;20143;-65
2022/11/21 10:04:28;;;;;;;19.08;7.25;;;;;;;;;;6082346;23;20033;-67
2022/11/21 10:06:58;;;;;;;19.38;7.35;;;;;;;;;;6141128;23;20030;-65
2022/11/21 10:09:32;;;;;;;17.75;6.80;;;;;;;;;;6110243;23;20036;-64
2022/11/21 10:14:56;;;;;;;16.48;6.57;;;;;;;;;;6117059;23;20022;-64
2022/11/21 10:17:31;;;;;;;19.30;7.30;;;;;;;;;;6119465;23;20622;-64
2022/11/21 10:20:16;;;;;;;20.55;7.97;;;;;;;;;;6130238;23;20033;-65
2022/11/21 10:22:53;;;;;;;17.33;6.95;;;;;;;;;;6095607;23;20049;-64
2022/11/21 10:25:25;;;;;;;17.27;6.10;;;;;;;;;;6148865;23;20041;-65
2022/11/21 10:27:53;;;;;;;17.02;6.88;;;;;;;;;;6106594;23;20025;-67
2022/11/21 10:30:23;;;;;;;16.73;7.03;;;;;;;;;;6114246;22;20040;-64
2022/11/21 10:32:54;;;;;;;18.67;7.27;;;;;;;;;;6102904;23;20033;-66
2022/11/21 10:35:22;;;;;;;16.55;6.97;;;;;;;;;;6130309;23;20265;-65
2022/11/21 10:37:50;;;;;;;20.88;7.45;;;;;;;;;;6117631;23;20039;-66
2022/11/21 10:40:26;;;;;;;17.05;7.00;;;;;;;;;;6112048;23;20029;-67
2022/11/21 10:42:58;;;;;;;21.48;7.45;;;;;;;;;;6122272;23;20037;-66
2022/11/21 10:45:24;;;;;;;18.85;7.15;;;;;;;;;;6125016;23;20068;-66
2022/11/21 10:47:54;;;;;;;22.50;7.65;;;;;;;;;;6140039;23;20040;-66
2022/11/21 10:50:32;;;;;;;16.63;6.57;;;;;;;;;;6114240;22;20022;-67
2022/11/21 10:54:31;;;;;;;21.10;6.97;;;;;;;;;;6133331;23;20098;-65
2022/11/21 10:55:57;;;;;;;15.95;6.53;;;;;;;;;;6135329;23;20029;-67
2022/11/21 10:58:33;;;;;;;20.05;7.63;;;;;;;;;;6127042;22;20034;-66
2022/11/21 11:01:00;;;;;;;17.00;7.28;;;;;;;;;;6073591;23;20080;-67
2022/11/21 11:03:29;;;;;;;17.25;7.35;;;;;;;;;;6133698;23;20044;-67
2022/11/21 11:05:57;;;;;;;18.30;6.93;;;;;;;;;;6107621;23;20044;-67
2022/11/21 11:08:26;;;;;;;19.65;7.82;;;;;;;;;;6089848;23;20021;-67
2022/11/21 11:11:20;;;;;;;19.00;6.55;;;;;;;;;;4983540;27;20535;-69
2022/11/21 11:13:57;;;;;;;17.83;7.93;;;;;;;;;;4997490;28;20051;-66
2022/11/21 11:16:24;;;;;;;19.88;7.25;;;;;;;;;;4985245;28;20056;-66
2022/11/21 11:18:54;;;;;;;21.33;7.53;;;;;;;;;;5021181;28;20045;-66
2022/11/21 11:21:21;;;;;;;20.02;7.95;;;;;;;;;;5010261;28;20051;-66
2022/11/21 11:23:49;;;;;;;17.63;7.03;;;;;;;;;;5023224;28;20072;-66
2022/11/21 11:26:24;;;;;;;16.85;6.82;;;;;;;;;;4989752;28;20112;-69
2022/11/21 11:28:53;;;;;;;19.02;7.15;;;;;;;;;;5021863;28;20069;-66
2022/11/21 11:31:21;;;;;;;17.02;6.47;;;;;;;;;;5014427;28;20052;-67
2022/11/21 11:33:52;;;;;;;19.95;7.22;;;;;;;;;;5032126;28;20064;-67
2022/11/21 11:36:24;;;;;;;20.73;7.50;;;;;;;;;;5013113;28;20053;-67
2022/11/21 11:38:53;;;;;;;19.65;7.03;;;;;;;;;;5017951;28;20061;-67
2022/11/21 11:47:29;;;;;;;17.58;7.18;;;;;;;;;;5016745;28;20045;-67
2022/11/21 11:47:32;;;;;;;14.63;6.18;;;;;;;;;;4996981;28;20045;-67
2022/11/21 11:50:14;;;;;;;15.02;6.40;;;;;;;;;;5012928;28;20046;-67
2022/11/21 11:52:44;;;;;;;15.60;6.97;;;;;;;;;;4954476;28;20881;-70
2022/11/21 11:55:16;;;;;;;16.30;6.90;;;;;;;;;;5010487;28;20053;-70
2022/11/21 11:57:48;;;;;;;18.58;6.72;;;;;;;;;;4947081;28;20056;-69
2022/11/21 12:00:20;;;;;;;18.42;7.22;;;;;;;;;;5029524;28;20129;-67
2022/11/21 12:02:52;;;;;;;17.15;7.10;;;;;;;;;;5025712;28;20068;-68
2022/11/21 12:05:24;;;;;;;17.58;6.38;;;;;;;;;;4983192;28;20045;-68
2022/11/21 12:07:56;;;;;;;15.48;6.65;;;;;;;;;;4911135;28;20069;-68
2022/11/21 12:10:25;;;;;;;16.75;6.75;;;;;;;;;;5003194;28;20056;-67
2022/11/21 12:13:02;;;;;;;16.15;6.80;;;;;;;;;;4956780;28;20045;-68
2022/11/21 12:15:51;;;;;;;17.65;7.00;;;;;;;;;;4999397;28;20143;-68
2022/11/21 12:18:24;;;;;;;16.42;6.60;;;;;;;;;;5006319;28;20073;-67
2022/11/21 12:20:54;;;;;;;14.40;6.75;;;;;;;;;;4986939;28;20070;-68
2022/11/21 12:23:25;;;;;;;18.38;6.35;;;;;;;;;;4972685;28;20099;-67
2022/11/21 12:25:54;;;;;;;13.65;5.85;;;;;;;;;;4917866;28;20046;-67
2022/11/21 12:28:25;;;;;;;14.95;6.05;;;;;;;;;;5002906;28;20103;-68
2022/11/21 12:30:57;;;;;;;13.07;5.63;;;;;;;;;;5004120;28;20057;-68
2022/11/21 12:33:24;;;;;;;14.00;5.85;;;;;;;;;;5027065;28;20064;-68
2022/11/21 12:36:13;;;;;;;13.40;5.65;;;;;;;;;;4961107;28;20076;-67
2022/11/21 12:38:48;;;;;;;14.05;5.82;;;;;;;;;;4976626;28;20049;-68
2022/11/21 12:44:17;;;;;;;12.25;5.00;;;;;;;;;;4979302;28;20057;-68
2022/11/21 12:46:47;;;;;;;13.80;5.30;;;;;;;;;;4978701;28;20057;-68
2022/11/21 12:55:06;;;;;;;11.77;4.75;;;;;;;;;;5001076;28;20060;-70
2022/11/21 12:57:41;;;;;;;10.82;5.07;;;;;;;;;;5029059;28;20060;-69
2022/11/21 13:00:15;;;;;;;11.55;5.18;;;;;;;;;;4983910;28;20060;-68
2022/11/21 13:02:54;;;;;;;11.25;4.50;;;;;;;;;;4982026;28;20054;-68
2022/11/21 13:05:25;;;;;;;11.85;4.50;;;;;;;;;;4982007;28;20060;-68
2022/11/21 13:07:56;;;;;;;11.75;5.00;;;;;;;;;;4971038;28;20070;-68
2022/11/21 13:10:23;;;;;;;10.48;4.63;;;;;;;;;;4961497;28;20438;-71
2022/11/21 13:12:58;;;;;;;9.23;4.15;;;;;;;;;;5000566;28;20061;-72
2022/11/21 13:15:32;;;;;;;9.77;4.57;;;;;;;;;;4982265;28;20070;-70
2022/11/21 13:18:02;;;;;;;12.43;5.07;;;;;;;;;;4913415;29;20055;-71
2022/11/21 13:20:32;;;;;;;10.27;4.18;;;;;;;;;;4901010;29;20047;-71
2022/11/21 13:22:59;;;;;;;11.52;4.75;;;;;;;;;;4939682;28;20055;-71
2022/11/21 13:25:37;;;;;;;8.60;3.95;;;;;;;;;;4983005;28;20200;-69
2022/11/21 13:28:18;;;;;;;8.20;3.80;;;;;;;;;;4997392;28;20072;-68
2022/11/21 13:30:50;;;;;;;10.00;4.35;;;;;;;;;;4982146;28;20045;-69
2022/11/21 13:33:32;;;;;;;11.93;4.47;;;;;;;;;;5006108;28;20067;-69
2022/11/21 13:35:59;;;;;;;8.93;4.05;;;;;;;;;;4975236;28;20053;-69
2022/11/21 13:38:26;;;;;;;11.35;4.88;;;;;;;;;;4999424;28;20064;-68
2022/11/21 13:43:37;;;;;;;8.60;3.70;;;;;;;;;;5019548;28;20060;-68
2022/11/21 13:46:05;;;;;;;9.48;3.95;;;;;;;;;;4985897;28;20061;-69
2022/11/21 13:48:59;;;;;;;8.32;4.03;;;;;;;;;;4970475;28;20061;-69
2022/11/21 13:51:42;;;;;;;8.48;3.70;;;;;;;;;;4980585;28;20041;-68
2022/11/21 13:54:26;;;;;;;9.07;3.58;;;;;;;;;;5019914;28;20145;-69
2022/11/21 13:57:00;;;;;;;10.40;4.57;;;;;;;;;;5004484;28;20053;-69
2022/11/21 13:59:39;;;;;;;11.98;3.78;;;;;;;;;;4945642;28;20059;-69
2022/11/21 14:02:24;;;;;;;7.88;3.95;;;;;;;;;;4979889;28;20113;-68
2022/11/21 14:05:07;;;;;;;8.85;3.72;;;;;;;;;;5016164;28;20060;-69
2022/11/21 14:07:39;;;;;;;7.82;3.22;;;;;;;;;;4973336;28;20045;-70
2022/11/21 14:10:21;;;;;;;8.02;3.67;;;;;;;;;;4982492;28;20107;-68
2022/11/21 14:12:50;;;;;;;10.90;3.78;;;;;;;;;;4989885;28;20050;-69
2022/11/21 14:15:23;;;;;;;8.05;3.50;;;;;;;;;;4968827;28;20049;-70
2022/11/21 14:17:51;;;;;;;8.70;3.55;;;;;;;;;;5003908;28;20053;-68
2022/11/21 14:20:22;;;;;;;6.88;2.85;;;;;;;;;;4955918;28;20054;-69
2022/11/21 14:22:59;;;;;;;8.23;3.50;;;;;;;;;;4958507;28;20054;-68
2022/11/21 14:25:32;;;;;;;6.65;2.92;;;;;;;;;;5023213;28;20148;-68
2022/11/21 14:27:59;;;;;;;11.85;3.33;;;;;;;;;;4995712;28;20063;-68
2022/11/21 14:30:30;;;;;;;7.80;3.05;;;;;;;;;;4987971;28;20048;-69
2022/11/21 14:32:57;;;;;;;10.00;3.78;;;;;;;;;;4993723;28;20899;-68
2022/11/21 14:35:26;;;;;;;7.57;3.45;;;;;;;;;;5019307;28;20056;-68
2022/11/21 14:37:57;;;;;;;7.78;3.55;;;;;;;;;;5022227;28;20053;-69
2022/11/21 14:40:25;;;;;;;6.25;3.10;;;;;;;;;;4951717;28;20052;-71
2022/11/21 14:43:03;;;;;;;9.30;3.47;;;;;;;;;;4969713;28;20489;-70
2022/11/21 14:45:30;;;;;;;8.27;3.03;;;;;;;;;;5004769;28;20091;-71
2022/11/21 14:47:56;;;;;;;9.23;3.28;;;;;;;;;;4963700;28;20124;-70
2022/11/21 14:50:27;;;;;;;6.63;2.83;;;;;;;;;;4964155;28;20052;-70
2022/11/21 14:52:58;;;;;;;9.00;3.20;;;;;;;;;;4981061;28;20060;-70
2022/11/21 14:55:28;;;;;;;8.18;3.47;;;;;;;;;;4993815;28;20049;-70
2022/11/21 14:57:57;;;;;;;7.60;3.08;;;;;;;;;;4981378;28;20047;-69
2022/11/21 15:00:25;;;;;;;8.05;2.97;;;;;;;;;;4984017;28;20132;-69
2022/11/21 15:02:55;;;;;;;8.35;2.78;;;;;;;;;;4997404;28;20053;-70
2022/11/21 15:05:28;;;;;;;5.73;2.83;;;;;;;;;;4992478;28;20065;-69
2022/11/21 15:08:00;;;;;;;8.82;3.00;;;;;;;;;;4959212;28;20053;-69
2022/11/21 15:10:30;;;;;;;7.85;3.08;;;;;;;;;;4978884;28;20049;-69
2022/11/21 15:12:59;;;;;;;7.53;3.00;;;;;;;;;;4989766;28;20354;-70
2022/11/21 15:15:26;;;;;;;;;;;;;;;;;;4957003;28;20058;-70